sensor_id;sensor_type;location;lat;lon;timestamp;P1;durP1;ratioP1;P2;durP2;ratioP2
75937;SDS011;64615;32.062;34.834;2024-03-06T00:00:05;18.33;;;6.45;;
75937;SDS011;64615;32.062;34.834;2024-03-06T00:04:59;16.85;;;6.55;;
75937;SDS011;64615;32.062;34.834;2024-03-06T00:07:24;20.33;;;6.90;;
75937;SDS011;64615;32.062;34.834;2024-03-06T00:09:51;19.63;;;6.20;;
75937;SDS011;64615;32.062;34.834;2024-03-06T00:12:18;17.65;;;6.55;;
75937;SDS011;64615;32.062;34.834;2024-03-06T00:14:44;18.38;;;6.65;;
75937;SDS011;64615;32.062;34.834;2024-03-06T00:17:09;14.52;;;6.13;;
75937;SDS011;64615;32.062;34.834;2024-03-06T00:19:35;19.33;;;7.18;;
75937;SDS011;64615;32.062;34.834;2024-03-06T00:22:01;17.83;;;6.53;;
75937;SDS011;64615;32.062;34.834;2024-03-06T00:24:27;17.75;;;6.68;;
75937;SDS011;64615;32.062;34.834;2024-03-06T00:26:53;21.33;;;6.55;;
75937;SDS011;64615;32.062;34.834;2024-03-06T00:29:19;19.10;;;6.82;;
75937;SDS011;64615;32.062;34.834;2024-03-06T00:31:45;15.23;;;6.78;;
75937;SDS011;64615;32.062;34.834;2024-03-06T00:34:11;20.90;;;7.50;;
75937;SDS011;64615;32.062;34.834;2024-03-06T00:36:42;17.88;;;6.88;;
75937;SDS011;64615;32.062;34.834;2024-03-06T00:39:11;19.92;;;7.72;;
75937;SDS011;64615;32.062;34.834;2024-03-06T00:41:39;19.98;;;6.70;;
75937;SDS011;64615;32.062;34.834;2024-03-06T00:44:06;16.67;;;6.47;;
75937;SDS011;64615;32.062;34.834;2024-03-06T00:46:32;17.85;;;6.50;;
75937;SDS011;64615;32.062;34.834;2024-03-06T00:48:57;15.23;;;6.65;;
75937;SDS011;64615;32.062;34.834;2024-03-06T00:51:23;18.25;;;6.72;;
75937;SDS011;64615;32.062;34.834;2024-03-06T00:53:48;14.57;;;6.05;;
75937;SDS011;64615;32.062;34.834;2024-03-06T00:56:14;14.18;;;6.57;;
75937;SDS011;64615;32.062;34.834;2024-03-06T00:58:40;15.38;;;6.57;;
75937;SDS011;64615;32.062;34.834;2024-03-06T01:01:05;15.57;;;6.57;;
75937;SDS011;64615;32.062;34.834;2024-03-06T01:03:31;20.33;;;6.93;;
75937;SDS011;64615;32.062;34.834;2024-03-06T01:05:57;16.63;;;6.90;;
75937;SDS011;64615;32.062;34.834;2024-03-06T01:08:22;14.68;;;6.47;;
75937;SDS011;64615;32.062;34.834;2024-03-06T01:10:50;17.13;;;6.70;;
75937;SDS011;64615;32.062;34.834;2024-03-06T01:13:16;15.45;;;6.30;;
75937;SDS011;64615;32.062;34.834;2024-03-06T01:15:43;18.70;;;6.63;;
75937;SDS011;64615;32.062;34.834;2024-03-06T01:18:09;19.63;;;7.00;;
75937;SDS011;64615;32.062;34.834;2024-03-06T01:20:34;18.38;;;7.03;;
75937;SDS011;64615;32.062;34.834;2024-03-06T01:23:01;16.50;;;6.20;;
75937;SDS011;64615;32.062;34.834;2024-03-06T01:25:26;18.33;;;7.20;;
75937;SDS011;64615;32.062;34.834;2024-03-06T01:27:52;16.02;;;6.70;;
75937;SDS011;64615;32.062;34.834;2024-03-06T01:30:18;15.63;;;6.30;;
75937;SDS011;64615;32.062;34.834;2024-03-06T01:32:43;16.98;;;6.63;;
75937;SDS011;64615;32.062;34.834;2024-03-06T01:35:09;14.48;;;6.15;;
75937;SDS011;64615;32.062;34.834;2024-03-06T01:37:34;13.73;;;6.30;;
75937;SDS011;64615;32.062;34.834;2024-03-06T01:40:00;16.08;;;6.13;;
75937;SDS011;64615;32.062;34.834;2024-03-06T01:42:29;15.32;;;6.40;;
75937;SDS011;64615;32.062;34.834;2024-03-06T01:44:54;14.60;;;5.75;;
75937;SDS011;64615;32.062;34.834;2024-03-06T01:47:20;17.30;;;6.53;;
75937;SDS011;64615;32.062;34.834;2024-03-06T01:49:45;14.38;;;6.32;;
75937;SDS011;64615;32.062;34.834;2024-03-06T01:52:12;18.08;;;6.05;;
75937;SDS011;64615;32.062;34.834;2024-03-06T01:54:40;14.32;;;5.85;;
75937;SDS011;64615;32.062;34.834;2024-03-06T01:57:06;20.75;;;6.18;;
75937;SDS011;64615;32.062;34.834;2024-03-06T01:59:33;15.82;;;5.80;;
75937;SDS011;64615;32.062;34.834;2024-03-06T02:01:59;16.15;;;6.00;;
75937;SDS011;64615;32.062;34.834;2024-03-06T02:04:26;14.13;;;6.10;;
75937;SDS011;64615;32.062;34.834;2024-03-06T02:06:53;18.58;;;5.90;;
75937;SDS011;64615;32.062;34.834;2024-03-06T02:09:19;17.67;;;6.32;;
75937;SDS011;64615;32.062;34.834;2024-03-06T02:11:45;18.92;;;6.00;;
75937;SDS011;64615;32.062;34.834;2024-03-06T02:14:11;14.30;;;5.95;;
75937;SDS011;64615;32.062;34.834;2024-03-06T02:16:37;28.30;;;7.32;;
75937;SDS011;64615;32.062;34.834;2024-03-06T02:19:06;16.88;;;6.15;;
75937;SDS011;64615;32.062;34.834;2024-03-06T02:21:33;17.20;;;6.32;;
75937;SDS011;64615;32.062;34.834;2024-03-06T02:23:59;12.60;;;5.50;;
75937;SDS011;64615;32.062;34.834;2024-03-06T02:26:24;19.27;;;6.15;;
75937;SDS011;64615;32.062;34.834;2024-03-06T02:28:51;13.95;;;5.82;;
75937;SDS011;64615;32.062;34.834;2024-03-06T02:31:17;14.02;;;5.45;;
75937;SDS011;64615;32.062;34.834;2024-03-06T02:33:45;14.10;;;5.57;;
75937;SDS011;64615;32.062;34.834;2024-03-06T02:36:18;15.27;;;5.68;;
75937;SDS011;64615;32.062;34.834;2024-03-06T02:38:44;16.85;;;5.25;;
75937;SDS011;64615;32.062;34.834;2024-03-06T02:41:11;16.35;;;5.88;;
75937;SDS011;64615;32.062;34.834;2024-03-06T02:43:39;13.93;;;5.40;;
75937;SDS011;64615;32.062;34.834;2024-03-06T02:46:04;14.15;;;5.63;;
75937;SDS011;64615;32.062;34.834;2024-03-06T02:48:30;13.68;;;5.13;;
75937;SDS011;64615;32.062;34.834;2024-03-06T02:50:56;14.07;;;5.45;;
75937;SDS011;64615;32.062;34.834;2024-03-06T02:53:22;14.55;;;5.18;;
75937;SDS011;64615;32.062;34.834;2024-03-06T02:55:48;14.80;;;5.82;;
75937;SDS011;64615;32.062;34.834;2024-03-06T02:58:14;16.33;;;5.10;;
75937;SDS011;64615;32.062;34.834;2024-03-06T03:00:43;15.93;;;5.07;;
75937;SDS011;64615;32.062;34.834;2024-03-06T03:03:09;11.40;;;5.00;;
75937;SDS011;64615;32.062;34.834;2024-03-06T03:05:37;14.43;;;5.10;;
75937;SDS011;64615;32.062;34.834;2024-03-06T03:08:03;16.35;;;4.90;;
75937;SDS011;64615;32.062;34.834;2024-03-06T03:10:30;13.07;;;5.05;;
75937;SDS011;64615;32.062;34.834;2024-03-06T03:12:56;14.27;;;4.68;;
75937;SDS011;64615;32.062;34.834;2024-03-06T03:15:22;15.70;;;5.40;;
75937;SDS011;64615;32.062;34.834;2024-03-06T03:17:47;12.18;;;4.88;;
75937;SDS011;64615;32.062;34.834;2024-03-06T03:20:13;13.55;;;4.82;;
75937;SDS011;64615;32.062;34.834;2024-03-06T03:22:39;12.85;;;4.93;;
75937;SDS011;64615;32.062;34.834;2024-03-06T03:25:08;12.02;;;4.28;;
75937;SDS011;64615;32.062;34.834;2024-03-06T03:27:38;11.60;;;5.13;;
75937;SDS011;64615;32.062;34.834;2024-03-06T03:30:11;11.25;;;4.63;;
75937;SDS011;64615;32.062;34.834;2024-03-06T03:32:37;13.35;;;4.97;;
75937;SDS011;64615;32.062;34.834;2024-03-06T03:35:04;13.85;;;4.68;;
75937;SDS011;64615;32.062;34.834;2024-03-06T03:37:30;14.45;;;4.32;;
75937;SDS011;64615;32.062;34.834;2024-03-06T03:39:56;13.70;;;4.90;;
75937;SDS011;64615;32.062;34.834;2024-03-06T03:42:22;11.85;;;5.10;;
75937;SDS011;64615;32.062;34.834;2024-03-06T03:44:48;11.98;;;4.75;;
75937;SDS011;64615;32.062;34.834;2024-03-06T03:47:13;11.10;;;4.60;;
75937;SDS011;64615;32.062;34.834;2024-03-06T03:49:39;13.82;;;4.38;;
75937;SDS011;64615;32.062;34.834;2024-03-06T03:52:05;12.73;;;4.10;;
75937;SDS011;64615;32.062;34.834;2024-03-06T03:54:30;12.85;;;4.13;;
75937;SDS011;64615;32.062;34.834;2024-03-06T03:56:56;12.95;;;4.70;;
75937;SDS011;64615;32.062;34.834;2024-03-06T03:59:24;13.20;;;4.82;;
75937;SDS011;64615;32.062;34.834;2024-03-06T04:01:50;13.25;;;4.43;;
75937;SDS011;64615;32.062;34.834;2024-03-06T04:04:15;11.80;;;4.45;;
75937;SDS011;64615;32.062;34.834;2024-03-06T04:06:41;12.00;;;4.45;;
75937;SDS011;64615;32.062;34.834;2024-03-06T04:09:07;17.17;;;4.70;;
75937;SDS011;64615;32.062;34.834;2024-03-06T04:11:35;12.48;;;4.65;;
75937;SDS011;64615;32.062;34.834;2024-03-06T04:14:03;14.10;;;4.63;;
75937;SDS011;64615;32.062;34.834;2024-03-06T04:16:29;14.55;;;4.70;;
75937;SDS011;64615;32.062;34.834;2024-03-06T04:18:54;17.63;;;5.25;;
75937;SDS011;64615;32.062;34.834;2024-03-06T04:21:20;15.05;;;4.70;;
75937;SDS011;64615;32.062;34.834;2024-03-06T04:23:47;10.48;;;4.15;;
75937;SDS011;64615;32.062;34.834;2024-03-06T04:26:13;14.98;;;4.75;;
75937;SDS011;64615;32.062;34.834;2024-03-06T04:28:39;17.83;;;5.47;;
75937;SDS011;64615;32.062;34.834;2024-03-06T04:31:05;13.18;;;4.70;;
75937;SDS011;64615;32.062;34.834;2024-03-06T04:33:31;17.95;;;5.35;;
75937;SDS011;64615;32.062;34.834;2024-03-06T04:35:56;17.77;;;5.05;;
75937;SDS011;64615;32.062;34.834;2024-03-06T04:38:22;18.48;;;4.68;;
75937;SDS011;64615;32.062;34.834;2024-03-06T04:40:48;18.30;;;5.03;;
75937;SDS011;64615;32.062;34.834;2024-03-06T04:43:13;15.18;;;4.50;;
75937;SDS011;64615;32.062;34.834;2024-03-06T04:45:39;19.98;;;5.13;;
75937;SDS011;64615;32.062;34.834;2024-03-06T04:48:05;20.33;;;4.88;;
75937;SDS011;64615;32.062;34.834;2024-03-06T04:50:31;24.15;;;4.88;;
75937;SDS011;64615;32.062;34.834;2024-03-06T04:52:57;30.45;;;6.00;;
75937;SDS011;64615;32.062;34.834;2024-03-06T04:55:23;28.90;;;5.68;;
75937;SDS011;64615;32.062;34.834;2024-03-06T04:57:50;29.10;;;5.47;;
75937;SDS011;64615;32.062;34.834;2024-03-06T05:00:17;39.15;;;6.13;;
75937;SDS011;64615;32.062;34.834;2024-03-06T05:02:43;38.88;;;6.47;;
75937;SDS011;64615;32.062;34.834;2024-03-06T05:05:09;33.50;;;7.25;;
75937;SDS011;64615;32.062;34.834;2024-03-06T05:07:35;41.28;;;6.43;;
75937;SDS011;64615;32.062;34.834;2024-03-06T05:10:00;39.60;;;7.03;;
75937;SDS011;64615;32.062;34.834;2024-03-06T05:12:26;32.55;;;5.90;;
75937;SDS011;64615;32.062;34.834;2024-03-06T05:14:53;27.88;;;5.95;;
75937;SDS011;64615;32.062;34.834;2024-03-06T05:17:20;64.78;;;25.95;;
75937;SDS011;64615;32.062;34.834;2024-03-06T05:19:46;299.05;;;213.18;;
75937;SDS011;64615;32.062;34.834;2024-03-06T05:22:15;161.85;;;93.28;;
75937;SDS011;64615;32.062;34.834;2024-03-06T05:24:42;89.68;;;45.92;;
75937;SDS011;64615;32.062;34.834;2024-03-06T05:27:08;121.53;;;71.20;;
75937;SDS011;64615;32.062;34.834;2024-03-06T05:29:35;79.47;;;42.40;;
75937;SDS011;64615;32.062;34.834;2024-03-06T05:32:02;81.97;;;37.78;;
75937;SDS011;64615;32.062;34.834;2024-03-06T05:34:28;61.55;;;29.13;;
75937;SDS011;64615;32.062;34.834;2024-03-06T05:36:54;65.30;;;27.80;;
75937;SDS011;64615;32.062;34.834;2024-03-06T05:39:20;49.10;;;20.10;;
75937;SDS011;64615;32.062;34.834;2024-03-06T05:41:46;40.40;;;14.20;;
75937;SDS011;64615;32.062;34.834;2024-03-06T05:44:12;42.28;;;15.02;;
75937;SDS011;64615;32.062;34.834;2024-03-06T05:46:37;44.75;;;13.18;;
75937;SDS011;64615;32.062;34.834;2024-03-06T05:49:03;51.85;;;13.07;;
75937;SDS011;64615;32.062;34.834;2024-03-06T05:51:29;49.75;;;11.45;;
75937;SDS011;64615;32.062;34.834;2024-03-06T05:53:55;46.60;;;11.80;;
75937;SDS011;64615;32.062;34.834;2024-03-06T05:56:21;44.53;;;11.75;;
75937;SDS011;64615;32.062;34.834;2024-03-06T05:58:47;42.92;;;12.13;;
75937;SDS011;64615;32.062;34.834;2024-03-06T06:01:17;38.67;;;9.68;;
75937;SDS011;64615;32.062;34.834;2024-03-06T06:03:46;37.08;;;9.65;;
75937;SDS011;64615;32.062;34.834;2024-03-06T06:06:15;31.42;;;8.70;;
75937;SDS011;64615;32.062;34.834;2024-03-06T06:08:42;36.15;;;8.88;;
75937;SDS011;64615;32.062;34.834;2024-03-06T06:11:09;26.95;;;8.43;;
75937;SDS011;64615;32.062;34.834;2024-03-06T06:13:35;26.70;;;7.85;;
75937;SDS011;64615;32.062;34.834;2024-03-06T06:16:01;26.33;;;8.30;;
75937;SDS011;64615;32.062;34.834;2024-03-06T06:18:29;32.55;;;8.13;;
75937;SDS011;64615;32.062;34.834;2024-03-06T06:20:56;37.80;;;8.35;;
75937;SDS011;64615;32.062;34.834;2024-03-06T06:23:22;35.40;;;8.00;;
75937;SDS011;64615;32.062;34.834;2024-03-06T06:25:48;28.67;;;7.53;;
75937;SDS011;64615;32.062;34.834;2024-03-06T06:28:14;29.92;;;7.75;;
75937;SDS011;64615;32.062;34.834;2024-03-06T06:30:39;32.15;;;7.60;;
75937;SDS011;64615;32.062;34.834;2024-03-06T06:33:05;24.90;;;6.53;;
75937;SDS011;64615;32.062;34.834;2024-03-06T06:35:31;23.05;;;6.13;;
75937;SDS011;64615;32.062;34.834;2024-03-06T06:37:57;25.45;;;6.80;;
75937;SDS011;64615;32.062;34.834;2024-03-06T06:40:23;22.25;;;5.95;;
75937;SDS011;64615;32.062;34.834;2024-03-06T06:42:49;27.25;;;6.43;;
75937;SDS011;64615;32.062;34.834;2024-03-06T06:45:15;22.00;;;7.30;;
75937;SDS011;64615;32.062;34.834;2024-03-06T06:47:41;21.63;;;6.53;;
75937;SDS011;64615;32.062;34.834;2024-03-06T06:50:07;20.20;;;6.72;;
75937;SDS011;64615;32.062;34.834;2024-03-06T06:52:34;18.50;;;5.85;;
75937;SDS011;64615;32.062;34.834;2024-03-06T06:55:00;20.42;;;6.50;;
75937;SDS011;64615;32.062;34.834;2024-03-06T06:57:26;21.73;;;6.03;;
75937;SDS011;64615;32.062;34.834;2024-03-06T06:59:52;16.75;;;5.40;;
75937;SDS011;64615;32.062;34.834;2024-03-06T07:02:18;21.30;;;6.10;;
75937;SDS011;64615;32.062;34.834;2024-03-06T07:04:44;18.73;;;5.43;;
75937;SDS011;64615;32.062;34.834;2024-03-06T07:07:09;19.65;;;5.65;;
75937;SDS011;64615;32.062;34.834;2024-03-06T07:09:35;17.27;;;5.88;;
75937;SDS011;64615;32.062;34.834;2024-03-06T07:12:01;23.10;;;5.80;;
75937;SDS011;64615;32.062;34.834;2024-03-06T07:14:27;16.15;;;5.70;;
75937;SDS011;64615;32.062;34.834;2024-03-06T07:16:53;16.10;;;5.05;;
75937;SDS011;64615;32.062;34.834;2024-03-06T07:19:19;19.27;;;5.78;;
75937;SDS011;64615;32.062;34.834;2024-03-06T07:21:45;13.55;;;5.35;;
75937;SDS011;64615;32.062;34.834;2024-03-06T07:24:10;20.30;;;5.63;;
75937;SDS011;64615;32.062;34.834;2024-03-06T07:26:36;18.63;;;5.22;;
75937;SDS011;64615;32.062;34.834;2024-03-06T07:29:02;17.52;;;5.43;;
75937;SDS011;64615;32.062;34.834;2024-03-06T07:31:28;21.10;;;5.40;;
75937;SDS011;64615;32.062;34.834;2024-03-06T07:33:53;17.10;;;5.28;;
75937;SDS011;64615;32.062;34.834;2024-03-06T07:36:20;16.17;;;5.05;;
75937;SDS011;64615;32.062;34.834;2024-03-06T07:38:46;14.60;;;4.88;;
75937;SDS011;64615;32.062;34.834;2024-03-06T07:41:12;12.65;;;4.20;;
75937;SDS011;64615;32.062;34.834;2024-03-06T07:43:37;13.02;;;4.07;;
75937;SDS011;64615;32.062;34.834;2024-03-06T07:46:04;17.10;;;4.00;;
75937;SDS011;64615;32.062;34.834;2024-03-06T07:48:36;16.73;;;4.90;;
75937;SDS011;64615;32.062;34.834;2024-03-06T07:51:02;18.02;;;4.50;;
75937;SDS011;64615;32.062;34.834;2024-03-06T07:53:28;14.48;;;3.72;;
75937;SDS011;64615;32.062;34.834;2024-03-06T07:55:53;18.13;;;3.75;;
75937;SDS011;64615;32.062;34.834;2024-03-06T07:58:19;17.45;;;3.78;;
75937;SDS011;64615;32.062;34.834;2024-03-06T08:00:46;17.13;;;3.53;;
75937;SDS011;64615;32.062;34.834;2024-03-06T08:03:12;15.38;;;3.75;;
75937;SDS011;64615;32.062;34.834;2024-03-06T08:05:38;11.73;;;3.15;;
75937;SDS011;64615;32.062;34.834;2024-03-06T08:08:04;13.52;;;3.47;;
75937;SDS011;64615;32.062;34.834;2024-03-06T08:10:30;13.98;;;3.67;;
75937;SDS011;64615;32.062;34.834;2024-03-06T08:12:56;13.00;;;3.17;;
75937;SDS011;64615;32.062;34.834;2024-03-06T08:15:22;11.85;;;3.25;;
75937;SDS011;64615;32.062;34.834;2024-03-06T08:17:49;11.88;;;2.92;;
75937;SDS011;64615;32.062;34.834;2024-03-06T08:20:14;13.10;;;3.15;;
75937;SDS011;64615;32.062;34.834;2024-03-06T08:22:41;11.30;;;2.88;;
75937;SDS011;64615;32.062;34.834;2024-03-06T08:25:08;12.32;;;2.67;;
75937;SDS011;64615;32.062;34.834;2024-03-06T08:27:34;12.00;;;2.80;;
75937;SDS011;64615;32.062;34.834;2024-03-06T08:30:02;10.82;;;2.83;;
75937;SDS011;64615;32.062;34.834;2024-03-06T08:32:30;14.68;;;2.97;;
75937;SDS011;64615;32.062;34.834;2024-03-06T08:35:00;15.80;;;2.92;;
75937;SDS011;64615;32.062;34.834;2024-03-06T08:37:26;10.00;;;2.47;;
75937;SDS011;64615;32.062;34.834;2024-03-06T08:39:51;14.73;;;2.80;;
75937;SDS011;64615;32.062;34.834;2024-03-06T08:42:17;12.25;;;2.50;;
75937;SDS011;64615;32.062;34.834;2024-03-06T08:44:43;8.55;;;2.67;;
75937;SDS011;64615;32.062;34.834;2024-03-06T08:47:10;7.88;;;2.20;;
75937;SDS011;64615;32.062;34.834;2024-03-06T08:49:36;11.38;;;2.45;;
75937;SDS011;64615;32.062;34.834;2024-03-06T08:52:02;9.75;;;2.47;;
75937;SDS011;64615;32.062;34.834;2024-03-06T08:54:28;11.25;;;2.22;;
75937;SDS011;64615;32.062;34.834;2024-03-06T08:56:56;11.00;;;2.45;;
75937;SDS011;64615;32.062;34.834;2024-03-06T08:59:23;12.40;;;2.60;;
75937;SDS011;64615;32.062;34.834;2024-03-06T09:01:51;14.65;;;2.60;;
75937;SDS011;64615;32.062;34.834;2024-03-06T09:04:19;11.63;;;2.08;;
75937;SDS011;64615;32.062;34.834;2024-03-06T09:06:45;14.20;;;2.35;;
75937;SDS011;64615;32.062;34.834;2024-03-06T09:09:11;11.65;;;2.60;;
75937;SDS011;64615;32.062;34.834;2024-03-06T09:11:42;10.48;;;2.60;;
75937;SDS011;64615;32.062;34.834;2024-03-06T09:14:09;9.88;;;2.17;;
75937;SDS011;64615;32.062;34.834;2024-03-06T09:16:35;8.27;;;2.03;;
75937;SDS011;64615;32.062;34.834;2024-03-06T09:19:01;9.90;;;2.60;;
75937;SDS011;64615;32.062;34.834;2024-03-06T09:21:27;12.25;;;2.20;;
75937;SDS011;64615;32.062;34.834;2024-03-06T09:23:53;12.45;;;2.15;;
75937;SDS011;64615;32.062;34.834;2024-03-06T09:26:19;12.50;;;2.40;;
75937;SDS011;64615;32.062;34.834;2024-03-06T09:28:47;7.30;;;2.00;;
75937;SDS011;64615;32.062;34.834;2024-03-06T09:31:14;10.77;;;2.33;;
75937;SDS011;64615;32.062;34.834;2024-03-06T09:33:40;12.60;;;2.35;;
75937;SDS011;64615;32.062;34.834;2024-03-06T09:36:06;9.80;;;2.28;;
75937;SDS011;64615;32.062;34.834;2024-03-06T09:38:32;10.45;;;2.42;;
75937;SDS011;64615;32.062;34.834;2024-03-06T09:40:57;9.93;;;2.10;;
75937;SDS011;64615;32.062;34.834;2024-03-06T09:43:23;10.15;;;2.42;;
75937;SDS011;64615;32.062;34.834;2024-03-06T09:45:50;11.45;;;2.47;;
75937;SDS011;64615;32.062;34.834;2024-03-06T09:48:16;14.43;;;2.00;;
75937;SDS011;64615;32.062;34.834;2024-03-06T09:50:46;12.15;;;2.42;;
75937;SDS011;64615;32.062;34.834;2024-03-06T09:53:17;11.00;;;2.40;;
75937;SDS011;64615;32.062;34.834;2024-03-06T09:55:46;10.02;;;2.35;;
75937;SDS011;64615;32.062;34.834;2024-03-06T09:58:12;10.35;;;2.20;;
75937;SDS011;64615;32.062;34.834;2024-03-06T10:00:38;13.40;;;2.50;;
75937;SDS011;64615;32.062;34.834;2024-03-06T10:03:04;12.38;;;2.63;;
75937;SDS011;64615;32.062;34.834;2024-03-06T10:05:30;11.52;;;2.58;;
75937;SDS011;64615;32.062;34.834;2024-03-06T10:07:58;13.73;;;2.67;;
75937;SDS011;64615;32.062;34.834;2024-03-06T10:10:25;10.23;;;2.45;;
75937;SDS011;64615;32.062;34.834;2024-03-06T10:12:52;13.27;;;2.15;;
75937;SDS011;64615;32.062;34.834;2024-03-06T10:15:18;13.52;;;2.25;;
75937;SDS011;64615;32.062;34.834;2024-03-06T10:17:44;9.35;;;2.45;;
75937;SDS011;64615;32.062;34.834;2024-03-06T10:22:52;11.73;;;2.70;;
75937;SDS011;64615;32.062;34.834;2024-03-06T10:25:19;12.88;;;2.70;;
75937;SDS011;64615;32.062;34.834;2024-03-06T10:30:43;10.75;;;2.38;;
75937;SDS011;64615;32.062;34.834;2024-03-06T10:33:09;14.35;;;2.70;;
75937;SDS011;64615;32.062;34.834;2024-03-06T10:35:36;10.50;;;2.60;;
75937;SDS011;64615;32.062;34.834;2024-03-06T10:38:03;16.13;;;2.55;;
75937;SDS011;64615;32.062;34.834;2024-03-06T10:40:37;12.85;;;2.72;;
75937;SDS011;64615;32.062;34.834;2024-03-06T10:43:04;9.77;;;2.45;;
75937;SDS011;64615;32.062;34.834;2024-03-06T10:48:03;10.52;;;2.58;;
75937;SDS011;64615;32.062;34.834;2024-03-06T10:50:31;11.15;;;2.58;;
75937;SDS011;64615;32.062;34.834;2024-03-06T10:52:57;12.18;;;2.22;;
75937;SDS011;64615;32.062;34.834;2024-03-06T10:55:23;10.52;;;2.70;;
75937;SDS011;64615;32.062;34.834;2024-03-06T10:57:51;11.23;;;2.50;;
75937;SDS011;64615;32.062;34.834;2024-03-06T11:00:19;13.77;;;2.50;;
75937;SDS011;64615;32.062;34.834;2024-03-06T11:02:47;11.32;;;2.50;;
75937;SDS011;64615;32.062;34.834;2024-03-06T11:05:14;9.88;;;2.80;;
75937;SDS011;64615;32.062;34.834;2024-03-06T11:07:41;13.00;;;2.70;;
75937;SDS011;64615;32.062;34.834;2024-03-06T11:10:07;12.88;;;2.55;;
75937;SDS011;64615;32.062;34.834;2024-03-06T11:12:36;11.68;;;2.30;;
75937;SDS011;64615;32.062;34.834;2024-03-06T11:15:09;11.57;;;2.30;;
75937;SDS011;64615;32.062;34.834;2024-03-06T11:17:38;9.05;;;2.50;;
75937;SDS011;64615;32.062;34.834;2024-03-06T11:30:55;37.88;;;3.92;;
75937;SDS011;64615;32.062;34.834;2024-03-06T11:33:39;20.98;;;3.55;;
75937;SDS011;64615;32.062;34.834;2024-03-06T11:36:21;26.35;;;3.17;;
75937;SDS011;64615;32.062;34.834;2024-03-06T11:38:58;28.13;;;3.53;;
75937;SDS011;64615;32.062;34.834;2024-03-06T11:44:09;17.90;;;3.05;;
75937;SDS011;64615;32.062;34.834;2024-03-06T11:46:43;24.27;;;4.38;;
75937;SDS011;64615;32.062;34.834;2024-03-06T11:49:28;21.95;;;3.60;;
75937;SDS011;64615;32.062;34.834;2024-03-06T11:52:04;15.55;;;2.72;;
75937;SDS011;64615;32.062;34.834;2024-03-06T11:54:32;17.40;;;2.70;;
75937;SDS011;64615;32.062;34.834;2024-03-06T11:56:59;15.70;;;2.90;;
75937;SDS011;64615;32.062;34.834;2024-03-06T11:59:30;15.15;;;2.85;;
75937;SDS011;64615;32.062;34.834;2024-03-06T12:01:58;10.35;;;2.63;;
75937;SDS011;64615;32.062;34.834;2024-03-06T12:04:29;14.68;;;2.65;;
75937;SDS011;64615;32.062;34.834;2024-03-06T12:06:56;17.55;;;2.80;;
75937;SDS011;64615;32.062;34.834;2024-03-06T12:09:25;13.63;;;3.08;;
75937;SDS011;64615;32.062;34.834;2024-03-06T12:11:52;18.73;;;3.53;;
75937;SDS011;64615;32.062;34.834;2024-03-06T12:14:18;15.60;;;2.72;;
75937;SDS011;64615;32.062;34.834;2024-03-06T12:16:54;11.45;;;2.80;;
75937;SDS011;64615;32.062;34.834;2024-03-06T12:19:32;11.73;;;3.00;;
75937;SDS011;64615;32.062;34.834;2024-03-06T12:21:59;15.70;;;2.83;;
75937;SDS011;64615;32.062;34.834;2024-03-06T12:24:26;12.07;;;2.75;;
75937;SDS011;64615;32.062;34.834;2024-03-06T12:27:01;17.27;;;2.85;;
75937;SDS011;64615;32.062;34.834;2024-03-06T12:29:29;11.43;;;2.40;;
75937;SDS011;64615;32.062;34.834;2024-03-06T12:31:57;15.45;;;2.67;;
75937;SDS011;64615;32.062;34.834;2024-03-06T12:34:26;12.23;;;2.17;;
75937;SDS011;64615;32.062;34.834;2024-03-06T12:36:52;11.55;;;2.40;;
75937;SDS011;64615;32.062;34.834;2024-03-06T12:39:18;12.70;;;2.55;;
75937;SDS011;64615;32.062;34.834;2024-03-06T12:41:48;9.63;;;2.25;;
75937;SDS011;64615;32.062;34.834;2024-03-06T12:44:14;13.57;;;2.00;;
75937;SDS011;64615;32.062;34.834;2024-03-06T12:46:40;9.65;;;1.77;;
75937;SDS011;64615;32.062;34.834;2024-03-06T12:49:06;11.40;;;2.00;;
75937;SDS011;64615;32.062;34.834;2024-03-06T12:51:31;13.88;;;2.42;;
75937;SDS011;64615;32.062;34.834;2024-03-06T12:53:57;10.52;;;2.10;;
75937;SDS011;64615;32.062;34.834;2024-03-06T12:56:23;9.98;;;2.15;;
75937;SDS011;64615;32.062;34.834;2024-03-06T12:58:50;8.88;;;2.10;;
75937;SDS011;64615;32.062;34.834;2024-03-06T13:01:17;11.65;;;2.35;;
75937;SDS011;64615;32.062;34.834;2024-03-06T13:03:42;8.73;;;2.30;;
75937;SDS011;64615;32.062;34.834;2024-03-06T13:06:08;11.82;;;2.05;;
75937;SDS011;64615;32.062;34.834;2024-03-06T13:08:34;8.57;;;2.42;;
75937;SDS011;64615;32.062;34.834;2024-03-06T13:10:59;8.73;;;2.08;;
75937;SDS011;64615;32.062;34.834;2024-03-06T13:13:25;10.77;;;1.98;;
75937;SDS011;64615;32.062;34.834;2024-03-06T13:15:54;11.07;;;2.40;;
75937;SDS011;64615;32.062;34.834;2024-03-06T13:18:20;10.15;;;2.10;;
75937;SDS011;64615;32.062;34.834;2024-03-06T13:20:45;6.45;;;1.75;;
75937;SDS011;64615;32.062;34.834;2024-03-06T13:23:11;9.75;;;2.20;;
75937;SDS011;64615;32.062;34.834;2024-03-06T13:25:37;7.32;;;1.75;;
75937;SDS011;64615;32.062;34.834;2024-03-06T13:28:03;8.02;;;1.70;;
75937;SDS011;64615;32.062;34.834;2024-03-06T13:30:30;7.45;;;1.90;;
75937;SDS011;64615;32.062;34.834;2024-03-06T13:32:56;9.07;;;1.80;;
75937;SDS011;64615;32.062;34.834;2024-03-06T13:35:21;6.80;;;1.65;;
75937;SDS011;64615;32.062;34.834;2024-03-06T13:37:47;8.52;;;2.00;;
75937;SDS011;64615;32.062;34.834;2024-03-06T13:40:14;10.95;;;2.20;;
75937;SDS011;64615;32.062;34.834;2024-03-06T13:42:40;7.50;;;1.55;;
75937;SDS011;64615;32.062;34.834;2024-03-06T13:45:06;9.45;;;1.83;;
75937;SDS011;64615;32.062;34.834;2024-03-06T13:47:39;9.40;;;1.70;;
75937;SDS011;64615;32.062;34.834;2024-03-06T13:50:09;11.30;;;1.70;;
75937;SDS011;64615;32.062;34.834;2024-03-06T13:52:35;9.85;;;1.80;;
75937;SDS011;64615;32.062;34.834;2024-03-06T13:55:01;8.23;;;1.85;;
75937;SDS011;64615;32.062;34.834;2024-03-06T13:57:29;9.18;;;1.80;;
75937;SDS011;64615;32.062;34.834;2024-03-06T14:00:03;7.43;;;1.85;;
75937;SDS011;64615;32.062;34.834;2024-03-06T14:02:31;8.88;;;1.77;;
75937;SDS011;64615;32.062;34.834;2024-03-06T14:04:57;9.70;;;2.08;;
75937;SDS011;64615;32.062;34.834;2024-03-06T14:07:23;6.20;;;1.60;;
75937;SDS011;64615;32.062;34.834;2024-03-06T14:09:49;10.65;;;1.77;;
75937;SDS011;64615;32.062;34.834;2024-03-06T14:12:15;15.15;;;2.10;;
75937;SDS011;64615;32.062;34.834;2024-03-06T14:14:42;11.05;;;1.80;;
75937;SDS011;64615;32.062;34.834;2024-03-06T14:17:07;12.75;;;2.60;;
75937;SDS011;64615;32.062;34.834;2024-03-06T14:19:34;11.35;;;2.40;;
75937;SDS011;64615;32.062;34.834;2024-03-06T14:21:59;10.45;;;2.17;;
75937;SDS011;64615;32.062;34.834;2024-03-06T14:24:25;16.38;;;2.33;;
75937;SDS011;64615;32.062;34.834;2024-03-06T14:26:50;11.27;;;1.80;;
75937;SDS011;64615;32.062;34.834;2024-03-06T14:29:16;9.00;;;2.45;;
75937;SDS011;64615;32.062;34.834;2024-03-06T14:31:42;13.35;;;2.15;;
75937;SDS011;64615;32.062;34.834;2024-03-06T14:34:08;13.73;;;2.20;;
75937;SDS011;64615;32.062;34.834;2024-03-06T14:36:34;8.38;;;2.03;;
75937;SDS011;64615;32.062;34.834;2024-03-06T14:38:59;9.15;;;1.70;;
75937;SDS011;64615;32.062;34.834;2024-03-06T14:41:25;8.88;;;1.60;;
75937;SDS011;64615;32.062;34.834;2024-03-06T14:43:51;10.23;;;1.80;;